createdAt,value
2018-12-21T00:01:47.872Z,100749.73
2018-12-21T00:04:19.723Z,100750.20
2018-12-21T00:06:51.441Z,100747.17
2018-12-21T00:09:21.966Z,100748.38
2018-12-21T00:11:53.679Z,100738.59
2018-12-21T00:14:31.077Z,100731.09
2018-12-21T00:17:03.298Z,100729.53
2018-12-21T00:19:35.801Z,100722.19
2018-12-21T00:22:11.934Z,100713.77
2018-12-21T00:24:56.539Z,100714.22
2018-12-21T00:27:45.236Z,100708.18
2018-12-21T00:30:24.467Z,100709.00
2018-12-21T00:33:04.970Z,100708.12
2018-12-21T00:35:40.080Z,100707.14
2018-12-21T00:38:24.606Z,100709.11
2018-12-21T00:41:00.340Z,100705.45
2018-12-21T00:43:37.864Z,100694.79
2018-12-21T00:46:44.753Z,100683.69
2018-12-21T00:49:16.895Z,100696.64
2018-12-21T00:51:46.236Z,100693.79
2018-12-21T00:54:16.583Z,100689.86
2018-12-21T00:56:47.322Z,100689.02
2018-12-21T00:59:19.835Z,100690.96
2018-12-21T01:01:50.820Z,100680.80
2018-12-21T01:04:20.751Z,100690.22
2018-12-21T01:06:51.720Z,100683.00
2018-12-21T01:09:21.912Z,100682.29
2018-12-21T01:11:53.922Z,100686.11
2018-12-21T01:14:31.785Z,100670.79
2018-12-21T01:17:15.195Z,100663.16
2018-12-21T01:22:42.901Z,100668.42
2018-12-21T01:25:12.750Z,100658.25
2018-12-21T01:27:41.173Z,100657.78
2018-12-21T01:30:20.826Z,100659.70
2018-12-21T01:32:51.438Z,100658.39
2018-12-21T01:35:22.624Z,100660.95
2018-12-21T01:37:53.523Z,100664.13
2018-12-21T01:40:29.393Z,100641.27
2018-12-21T01:43:02.634Z,100647.31
2018-12-21T01:45:32.345Z,100642.16
2018-12-21T01:48:01.484Z,100635.12
2018-12-21T01:50:36.068Z,100636.34
2018-12-21T01:53:07.297Z,100633.27
2018-12-21T01:55:37.214Z,100632.18
2018-12-21T01:58:10.233Z,100626.31
2018-12-21T02:00:45.828Z,100615.97
2018-12-21T02:03:16.934Z,100605.18
2018-12-21T02:06:41.378Z,100600.30
2018-12-21T02:09:12.804Z,100598.12
2018-12-21T02:11:41.738Z,100587.05
2018-12-21T02:14:12.650Z,100583.89
2018-12-21T02:16:43.439Z,100566.26
2018-12-21T02:19:13.832Z,100565.93
2018-12-21T02:21:44.675Z,100566.61
2018-12-21T02:24:16.572Z,100566.17
2018-12-21T02:26:46.417Z,100541.69
2018-12-21T02:29:16.511Z,100548.41
2018-12-21T02:31:47.009Z,100547.86
2018-12-21T02:34:17.732Z,100539.02
2018-12-21T02:36:48.050Z,100540.50
2018-12-21T02:39:18.883Z,100534.01
2018-12-21T02:41:47.758Z,100525.02
2018-12-21T02:44:18.238Z,100525.17
2018-12-21T02:46:48.631Z,100523.55
2018-12-21T02:49:18.286Z,100518.59
2018-12-21T02:51:49.074Z,100516.83
2018-12-21T02:54:19.243Z,100502.44
2018-12-21T02:56:49.519Z,100502.98
2018-12-21T02:59:20.612Z,100500.54
2018-12-21T03:01:50.627Z,100496.02
2018-12-21T03:04:20.491Z,100494.53
2018-12-21T03:06:53.797Z,100493.18
2018-12-21T03:09:26.449Z,100488.36
2018-12-21T03:11:57.936Z,100484.29
2018-12-21T03:14:34.661Z,100487.98
2018-12-21T03:17:07.901Z,100486.63
2018-12-21T03:19:43.540Z,100477.95
2018-12-21T03:22:15.289Z,100467.92
2018-12-21T03:24:45.015Z,100461.21
2018-12-21T03:27:16.337Z,100455.27
2018-12-21T03:29:53.290Z,100450.48
2018-12-21T03:32:23.274Z,100447.63
2018-12-21T03:34:54.918Z,100441.83
2018-12-21T03:37:25.280Z,100430.91
2018-12-21T03:39:55.341Z,100430.32
2018-12-21T03:42:26.768Z,100426.89
2018-12-21T03:44:56.946Z,100413.17
2018-12-21T03:47:28.291Z,100402.31
2018-12-21T03:49:58.330Z,100396.10
2018-12-21T03:52:29.403Z,100393.58
2018-12-21T03:54:59.955Z,100382.78
2018-12-21T03:57:29.222Z,100370.16
2018-12-21T03:59:59.223Z,100360.59
2018-12-21T04:02:31.727Z,100351.33
2018-12-21T04:05:03.499Z,100341.86
2018-12-21T04:07:33.331Z,100330.28
2018-12-21T04:10:04.907Z,100316.79
2018-12-21T04:12:35.109Z,100317.70
2018-12-21T04:15:07.365Z,100309.63
2018-12-21T04:17:42.578Z,100316.05
2018-12-21T04:20:15.080Z,100303.73
2018-12-21T04:25:33.713Z,100288.55
2018-12-21T04:28:05.053Z,100295.08
2018-12-21T04:30:37.638Z,100234.59
2018-12-21T04:33:08.211Z,100270.41
2018-12-21T04:35:36.888Z,100263.75
2018-12-21T04:38:07.706Z,100263.81
2018-12-21T04:40:38.632Z,100261.22
2018-12-21T04:43:09.096Z,100266.83
2018-12-21T04:45:40.216Z,100264.87
2018-12-21T04:48:10.753Z,100258.55
2018-12-21T04:50:42.195Z,100263.74
2018-12-21T04:53:13.993Z,100260.59
2018-12-21T04:55:42.663Z,100255.69
2018-12-21T04:59:50.033Z,100247.94
2018-12-21T05:02:19.872Z,100230.91
2018-12-21T05:04:51.946Z,100234.98
2018-12-21T05:07:20.488Z,100224.84
2018-12-21T05:09:48.932Z,100221.97
2018-12-21T05:12:17.555Z,100218.98
2018-12-21T05:16:13.447Z,100198.70
2018-12-21T05:18:41.974Z,100194.23
2018-12-21T05:21:10.459Z,100188.67
2018-12-21T05:23:38.451Z,100183.35
2018-12-21T05:26:06.873Z,100177.23
2018-12-21T05:28:39.467Z,100164.66
2018-12-21T05:31:10.987Z,100166.83
2018-12-21T05:33:41.471Z,100154.08
2018-12-21T05:36:13.291Z,100151.41
2018-12-21T05:38:42.049Z,100149.02
2018-12-21T05:41:15.573Z,100133.58
2018-12-21T05:43:44.215Z,100128.34
2018-12-21T05:46:13.081Z,100110.09
2018-12-21T05:48:41.567Z,100098.92
2018-12-21T05:51:11.072Z,100088.59
2018-12-21T05:53:40.336Z,100084.98
2018-12-21T05:56:09.131Z,100071.47
2018-12-21T05:58:38.092Z,100073.85
2018-12-21T06:01:06.874Z,99960.36
2018-12-21T06:03:35.678Z,100056.03
2018-12-21T06:06:03.733Z,100052.92
2018-12-21T06:08:34.948Z,100048.30
2018-12-21T06:13:08.989Z,100040.53
2018-12-21T06:15:38.272Z,100036.19
2018-12-21T06:18:08.483Z,100035.03
2018-12-21T06:20:37.264Z,100023.23
2018-12-21T06:23:09.583Z,100024.11
2018-12-21T06:25:36.400Z,100012.28
2018-12-21T06:28:05.229Z,100001.95
2018-12-21T06:30:34.608Z,99986.72
2018-12-21T06:33:04.327Z,99988.19
2018-12-21T06:35:33.764Z,99965.58
2018-12-21T06:38:02.806Z,99961.55
2018-12-21T06:40:33.639Z,99966.18
2018-12-21T06:43:02.126Z,99952.44
2018-12-21T06:45:31.089Z,99960.14
2018-12-21T06:47:59.133Z,99958.44
2018-12-21T06:50:29.926Z,99951.34
2018-12-21T06:52:58.234Z,99941.39
2018-12-21T06:55:27.887Z,99937.66
2018-12-21T06:57:56.290Z,99942.50
2018-12-21T07:00:25.548Z,99925.22
2018-12-21T07:02:53.810Z,99917.29
2018-12-21T07:05:22.511Z,99920.57
2018-12-21T07:07:51.921Z,99918.22
2018-12-21T07:10:20.771Z,99907.38
2018-12-21T07:12:51.558Z,99910.23
2018-12-21T07:15:20.957Z,99884.81
2018-12-21T07:17:52.690Z,99897.59
2018-12-21T07:20:23.396Z,99898.12
2018-12-21T07:22:51.969Z,99892.59
2018-12-21T07:25:26.781Z,99892.40
2018-12-21T07:28:51.143Z,99899.59
2018-12-21T07:31:22.180Z,99896.02
2018-12-21T07:33:53.125Z,99888.75
2018-12-21T07:36:24.868Z,99877.58
2018-12-21T07:38:56.721Z,99869.42
2018-12-21T07:41:27.784Z,99861.47
2018-12-21T07:43:56.344Z,99850.97
2018-12-21T07:46:30.377Z,99692.27
2018-12-21T07:48:59.742Z,99829.19
2018-12-21T07:51:28.591Z,99817.92
2018-12-21T07:53:58.754Z,99821.97
2018-12-21T07:56:28.060Z,99814.83
2018-12-21T07:58:57.521Z,99812.03
2018-12-21T08:01:28.445Z,99799.02
2018-12-21T08:03:57.229Z,99799.06
2018-12-21T08:06:28.028Z,99784.41
2018-12-21T08:08:57.250Z,99783.88
2018-12-21T08:11:26.531Z,99762.93
2018-12-21T08:13:58.050Z,99753.61
2018-12-21T08:16:28.721Z,99753.80
2018-12-21T08:19:01.624Z,99749.66
2018-12-21T08:21:35.911Z,99738.33
2018-12-21T08:24:12.472Z,99734.33
2018-12-21T08:26:41.029Z,99733.98
2018-12-21T08:29:11.679Z,99696.00
2018-12-21T08:31:40.998Z,99719.64
2018-12-21T08:34:10.876Z,99697.55
2018-12-21T08:36:41.388Z,99694.88
2018-12-21T08:39:16.864Z,99685.22
2018-12-21T08:41:46.350Z,99678.06
2018-12-21T08:44:15.381Z,99671.91
2018-12-21T08:46:46.752Z,99667.41
2018-12-21T08:49:15.663Z,99667.59
2018-12-21T08:51:44.426Z,99666.20
2018-12-21T08:54:14.087Z,99652.09
2018-12-21T08:56:42.524Z,99657.75
2018-12-21T08:59:11.642Z,99649.77
2018-12-21T09:01:43.162Z,99650.72
2018-12-21T09:04:14.578Z,99651.75
2018-12-21T09:06:44.491Z,99648.59
2018-12-21T09:09:13.067Z,99642.13
2018-12-21T09:11:43.837Z,99634.81
2018-12-21T09:14:14.153Z,99641.06
2018-12-21T09:16:45.892Z,99622.47
2018-12-21T09:19:14.903Z,99627.14
2018-12-21T09:21:49.815Z,99634.13
2018-12-21T09:24:23.328Z,99621.66
2018-12-21T09:26:57.569Z,99612.34
2018-12-21T09:29:26.585Z,99626.33
2018-12-21T09:31:56.305Z,99621.16
2018-12-21T09:34:26.312Z,99612.84
2018-12-21T09:37:00.009Z,99617.83
2018-12-21T09:39:32.660Z,99610.45
2018-12-21T09:42:03.340Z,99611.82
2018-12-21T09:44:35.679Z,99607.67
2018-12-21T09:47:19.417Z,99629.46
2018-12-21T09:49:49.904Z,99609.52
2018-12-21T09:52:20.220Z,99598.55
2018-12-21T09:54:51.801Z,99593.86
2018-12-21T09:57:27.366Z,99580.42
2018-12-21T09:59:59.955Z,99573.42
2018-12-21T10:02:35.848Z,99580.54
2018-12-21T10:05:05.626Z,99585.71
2018-12-21T10:07:35.901Z,99571.41
2018-12-21T10:10:06.920Z,99577.06
2018-12-21T10:12:38.209Z,99580.20
2018-12-21T10:15:15.182Z,99572.55
2018-12-21T10:17:44.450Z,99529.78
2018-12-21T10:20:28.009Z,99574.55
2018-12-21T10:23:01.525Z,99528.59
2018-12-21T10:25:32.123Z,99573.72
2018-12-21T10:28:01.214Z,99567.22
2018-12-21T10:30:34.815Z,99572.89
2018-12-21T10:33:06.304Z,99573.55
2018-12-21T10:35:40.110Z,99515.80
2018-12-21T10:38:08.684Z,99563.24
2018-12-21T10:40:38.391Z,99548.58
2018-12-21T10:43:09.144Z,99544.80
2018-12-21T10:45:44.000Z,99539.73
2018-12-21T10:48:26.688Z,99542.77
2018-12-21T10:50:56.449Z,99549.28
2018-12-21T10:53:33.312Z,99539.69
2018-12-21T10:56:13.815Z,99528.80
2018-12-21T10:58:46.755Z,99527.28
2018-12-21T11:01:18.084Z,99527.94
2018-12-21T11:03:58.282Z,99526.29
2018-12-21T11:06:34.268Z,99530.72
2018-12-21T11:09:08.169Z,99533.45
2018-12-21T11:12:35.783Z,99523.75
2018-12-21T11:15:07.309Z,99521.29
2018-12-21T11:20:17.632Z,99528.58
2018-12-21T11:22:48.023Z,99519.52
2018-12-21T11:25:37.671Z,99516.99
2018-12-21T11:29:21.197Z,99515.15
2018-12-21T11:31:51.547Z,99521.89
2018-12-21T11:34:24.875Z,99519.56
2018-12-21T11:36:59.727Z,99523.98
2018-12-21T11:39:35.710Z,99528.83
2018-12-21T11:42:07.798Z,99523.67
2018-12-21T11:44:40.094Z,99523.61
2018-12-21T11:47:08.864Z,99518.90
2018-12-21T11:49:37.142Z,99532.91
2018-12-21T11:52:07.022Z,99515.83
2018-12-21T11:54:44.218Z,99525.45
2018-12-21T11:57:14.817Z,99519.59
2018-12-21T11:59:45.046Z,99519.08
2018-12-21T12:02:25.937Z,99520.60
2018-12-21T12:04:57.086Z,99524.33
2018-12-21T12:07:33.740Z,99528.71
2018-12-21T12:10:26.009Z,99524.62
2018-12-21T12:12:57.611Z,99542.94
2018-12-21T12:15:28.636Z,99535.48
2018-12-21T12:21:45.950Z,99527.30
2018-12-21T12:24:20.045Z,99539.45
2018-12-21T12:26:48.657Z,99534.41
2018-12-21T12:29:23.086Z,99531.01
2018-12-21T12:31:53.721Z,99540.86
2018-12-21T12:34:23.612Z,99535.03
2018-12-21T12:36:51.979Z,99541.30
2018-12-21T12:39:20.271Z,99537.66
2018-12-21T12:41:54.628Z,99545.06
2018-12-21T12:44:24.106Z,99549.56
2018-12-21T12:46:54.849Z,99550.98
2018-12-21T12:49:28.060Z,99550.40
2018-12-21T12:52:06.471Z,99544.86
2018-12-21T12:54:37.887Z,99548.98
2018-12-21T12:57:08.549Z,99545.30
2018-12-21T12:59:41.688Z,99540.66
2018-12-21T13:02:15.943Z,99506.70
2018-12-21T13:04:55.432Z,99546.77
2018-12-21T13:10:29.001Z,99543.27
2018-12-21T13:13:04.039Z,99555.59
2018-12-21T13:15:49.972Z,99564.72
2018-12-21T13:18:31.223Z,99566.74
2018-12-21T13:21:16.342Z,99557.49
2018-12-21T13:23:58.852Z,99583.08
2018-12-21T13:26:30.407Z,99560.30
2018-12-21T13:29:06.203Z,99571.34
2018-12-21T13:31:37.186Z,99586.27
2018-12-21T13:34:15.890Z,99598.27
2018-12-21T13:37:02.370Z,99591.52
2018-12-21T13:39:37.688Z,99593.94
2018-12-21T13:42:27.152Z,99596.66
2018-12-21T13:44:57.981Z,99621.05
2018-12-21T13:47:27.746Z,99630.32
2018-12-21T13:49:59.135Z,99520.23
2018-12-21T13:52:27.722Z,99619.60
2018-12-21T13:55:04.639Z,99623.30
2018-12-21T13:57:38.078Z,99619.20
2018-12-21T14:00:19.946Z,99637.46
2018-12-21T14:02:51.587Z,99630.00
2018-12-21T14:05:27.160Z,99639.52
2018-12-21T14:08:05.921Z,99630.14
2018-12-21T14:10:38.532Z,99649.59
2018-12-21T14:13:08.757Z,99662.09
2018-12-21T14:15:47.045Z,99675.13
2018-12-21T14:18:18.173Z,99653.50
2018-12-21T14:20:50.288Z,99663.81
2018-12-21T14:23:20.801Z,99670.05
2018-12-21T14:25:50.499Z,99690.05
2018-12-21T14:28:30.424Z,99679.47
2018-12-21T14:31:11.205Z,99676.31
2018-12-21T14:33:45.409Z,99694.06
2018-12-21T14:36:16.585Z,99692.03
2018-12-21T14:38:51.727Z,99696.81
2018-12-21T14:41:22.677Z,99707.86
2018-12-21T14:44:01.708Z,99702.94
2018-12-21T14:46:40.812Z,99711.98
2018-12-21T14:49:20.940Z,99721.96
2018-12-21T14:51:49.843Z,99726.73
2018-12-21T14:54:25.152Z,99720.44
2018-12-21T14:56:59.834Z,99728.09
2018-12-21T14:59:32.484Z,99734.80
2018-12-21T15:02:08.115Z,99761.00
2018-12-21T15:04:43.099Z,99746.77
2018-12-21T15:07:22.946Z,99769.55
2018-12-21T15:09:55.328Z,99767.64
2018-12-21T15:12:29.707Z,99770.89
2018-12-21T15:15:00.335Z,99769.05
2018-12-21T15:17:37.187Z,99773.23
2018-12-21T15:20:12.227Z,99781.01
2018-12-21T15:22:41.713Z,99786.47
2018-12-21T15:25:15.581Z,99767.08
2018-12-21T15:27:45.841Z,99784.58
2018-12-21T15:30:18.738Z,99794.59
2018-12-21T15:32:49.836Z,99795.08
2018-12-21T15:35:25.050Z,99805.01
2018-12-21T15:37:54.609Z,99806.52
2018-12-21T15:40:33.158Z,99803.56
2018-12-21T15:43:05.291Z,99803.23
2018-12-21T15:45:37.771Z,99821.71
2018-12-21T15:48:13.790Z,99818.80
2018-12-21T15:50:47.272Z,99830.02
2018-12-21T15:53:16.396Z,99839.83
2018-12-21T15:55:54.557Z,99855.92
2018-12-21T15:58:18.019Z,99843.57
2018-12-21T16:00:56.085Z,99738.25
2018-12-21T16:03:26.662Z,99850.56
2018-12-21T16:05:59.369Z,99851.83
2018-12-21T16:08:31.128Z,99843.86
2018-12-21T16:11:00.176Z,99861.53
2018-12-21T16:13:35.419Z,99867.30
2018-12-21T16:16:21.701Z,99878.63
2018-12-21T16:18:51.151Z,99879.59
2018-12-21T16:21:25.409Z,99884.69
2018-12-21T16:23:55.131Z,99893.06
2018-12-21T16:26:30.430Z,99897.33
2018-12-21T16:29:13.546Z,99898.80
2018-12-21T16:31:55.532Z,99896.66
2018-12-21T16:34:34.463Z,99894.20
2018-12-21T16:37:05.800Z,99887.33
2018-12-21T16:39:51.868Z,99897.00
2018-12-21T16:42:26.158Z,99900.27
2018-12-21T16:44:59.369Z,99891.14
2018-12-21T16:47:31.368Z,99900.42
2018-12-21T16:50:05.091Z,99898.97
2018-12-21T16:52:35.716Z,99911.77
2018-12-21T16:55:08.797Z,99924.53
2018-12-21T16:57:38.635Z,99920.05
2018-12-21T17:00:17.368Z,99924.23
2018-12-21T17:02:57.044Z,99938.83
2018-12-21T17:05:27.133Z,99895.75
2018-12-21T17:07:57.438Z,99937.72
2018-12-21T17:10:26.996Z,99945.89
2018-12-21T17:12:56.703Z,99950.73
2018-12-21T17:15:31.335Z,99951.38
2018-12-21T17:18:00.739Z,99945.55
2018-12-21T17:20:31.477Z,99946.48
2018-12-21T17:23:03.615Z,99956.55
2018-12-21T17:25:35.172Z,99960.20
2018-12-21T17:28:13.694Z,99968.80
2018-12-21T17:30:45.092Z,99967.30
2018-12-21T17:33:26.155Z,99979.44
2018-12-21T17:35:58.831Z,99980.77
2018-12-21T17:38:34.081Z,99990.16
2018-12-21T17:41:05.425Z,99926.95
2018-12-21T17:43:48.433Z,100004.04
2018-12-21T17:46:23.895Z,99934.61
2018-12-21T17:48:52.298Z,100010.52
2018-12-21T17:51:26.705Z,100027.14
2018-12-21T17:53:56.319Z,100020.28
2018-12-21T17:56:29.979Z,100032.00
2018-12-21T17:59:03.332Z,100037.99
2018-12-21T18:01:43.267Z,100035.45
2018-12-21T18:04:23.209Z,100049.15
2018-12-21T18:07:02.593Z,100034.74
2018-12-21T18:09:40.052Z,100000.59
2018-12-21T18:12:15.545Z,100047.55
2018-12-21T18:14:50.672Z,100054.69
2018-12-21T18:17:22.613Z,100057.20
2018-12-21T18:19:56.435Z,100056.89
2018-12-21T18:22:28.154Z,100067.94
2018-12-21T18:25:04.984Z,100072.30
2018-12-21T18:27:38.820Z,100080.82
2018-12-21T18:33:10.920Z,100097.39
2018-12-21T18:35:45.338Z,100098.75
2018-12-21T18:41:30.107Z,100104.14
2018-12-21T18:44:09.448Z,100102.97
2018-12-21T18:46:54.616Z,100111.49
2018-12-21T18:49:38.759Z,100112.98
2018-12-21T18:52:24.992Z,100113.81
2018-12-21T18:54:56.958Z,100124.66
2018-12-21T18:57:40.696Z,100137.70
2018-12-21T19:00:19.724Z,100137.36
2018-12-21T19:02:59.762Z,100140.54
2018-12-21T19:05:37.791Z,100148.23
2018-12-21T19:08:07.903Z,100149.42
2018-12-21T19:10:42.278Z,100155.77
2018-12-21T19:13:18.314Z,100150.08
2018-12-21T19:16:00.591Z,100151.58
2018-12-21T19:18:37.465Z,100135.86
2018-12-21T19:21:12.124Z,100158.77
2018-12-21T19:23:51.835Z,100119.63
2018-12-21T19:26:34.771Z,100156.10
2018-12-21T19:29:07.760Z,100154.41
2018-12-21T19:31:50.838Z,100153.92
2018-12-21T19:34:31.998Z,100161.61
2018-12-21T19:37:19.173Z,100165.11
2018-12-21T19:39:59.624Z,100101.63
2018-12-21T19:42:36.102Z,100146.23
2018-12-21T19:48:16.845Z,100166.13
2018-12-21T19:50:47.366Z,100161.44
2018-12-21T19:53:18.728Z,100163.61
2018-12-21T19:55:58.513Z,100175.81
2018-12-21T19:58:29.316Z,100169.13
2018-12-21T20:01:02.679Z,100166.11
2018-12-21T20:03:34.733Z,100172.62
2018-12-21T20:06:08.380Z,100180.49
2018-12-21T20:08:37.775Z,100172.30
2018-12-21T20:11:09.667Z,100185.67
2018-12-21T20:13:54.486Z,100188.69
2018-12-21T20:21:22.439Z,100197.20
2018-12-21T20:23:56.087Z,100199.36
2018-12-21T20:26:27.404Z,100191.36
2018-12-21T20:32:16.973Z,100183.01
2018-12-21T20:34:56.487Z,100203.22
2018-12-21T20:37:46.271Z,100202.06
2018-12-21T20:40:17.852Z,100207.24
2018-12-21T20:42:54.379Z,100209.05
2018-12-21T20:45:35.532Z,100219.58
2018-12-21T20:48:08.720Z,100224.62
2018-12-21T20:50:41.283Z,100224.46
2018-12-21T20:53:21.410Z,100233.14
2018-12-21T20:56:08.670Z,100222.77
2018-12-21T20:58:47.835Z,100227.27
2018-12-21T21:01:18.610Z,100234.80
2018-12-21T21:03:49.713Z,100242.83
2018-12-21T21:06:24.343Z,100237.30
2018-12-21T21:08:56.464Z,100240.46
2018-12-21T21:11:27.475Z,100246.00
2018-12-21T21:14:03.025Z,100247.34
2018-12-21T21:16:36.312Z,100258.49
2018-12-21T21:19:11.255Z,100261.16
2018-12-21T21:21:41.342Z,100259.48
2018-12-21T21:24:14.381Z,100268.53
2018-12-21T21:26:45.090Z,100253.49
2018-12-21T21:29:15.812Z,100254.02
2018-12-21T21:31:54.549Z,100260.52
2018-12-21T21:34:28.440Z,100263.19
2018-12-21T21:36:58.997Z,100280.91
2018-12-21T21:39:30.836Z,100271.02
2018-12-21T21:42:17.141Z,100273.54
2018-12-21T21:44:49.383Z,100277.08
2018-12-21T21:47:26.760Z,100280.44
2018-12-21T21:49:56.934Z,100281.44
2018-12-21T21:55:12.375Z,100300.95
2018-12-21T21:57:44.346Z,100309.62
2018-12-21T22:00:18.004Z,100288.92
2018-12-21T22:02:51.073Z,100310.95
2018-12-21T22:05:26.590Z,100301.61
2018-12-21T22:08:02.128Z,100310.80
2018-12-21T22:10:32.687Z,100308.14
2018-12-21T22:13:08.096Z,100321.36
2018-12-21T22:15:38.895Z,100316.35
2018-12-21T22:18:09.992Z,100317.19
2018-12-21T22:20:41.502Z,100317.88
2018-12-21T22:23:13.732Z,100326.36
2018-12-21T22:25:53.421Z,100327.20
2018-12-21T22:28:24.475Z,100324.02
2018-12-21T22:30:58.984Z,100323.34
2018-12-21T22:33:39.102Z,100317.83
2018-12-21T22:36:13.947Z,100326.16
2018-12-21T22:38:46.392Z,100334.17
2018-12-21T22:43:19.143Z,100345.56
2018-12-21T22:48:46.682Z,100344.70
2018-12-21T22:51:24.953Z,100304.36
2018-12-21T22:53:58.758Z,100340.20
2018-12-21T22:56:32.275Z,100334.17
2018-12-21T22:59:01.411Z,100339.72
2018-12-21T23:01:33.239Z,100349.56
2018-12-21T23:04:09.658Z,100342.00
2018-12-21T23:06:39.578Z,100340.86
2018-12-21T23:09:10.320Z,100335.66
2018-12-21T23:11:50.221Z,100340.02
2018-12-21T23:14:37.395Z,100358.53
2018-12-21T23:17:11.986Z,100356.53
2018-12-21T23:19:41.563Z,100353.02
2018-12-21T23:22:12.559Z,100360.20
2018-12-21T23:24:41.919Z,100310.98
2018-12-21T23:27:13.817Z,100354.16
2018-12-21T23:29:43.550Z,100357.04
2018-12-21T23:32:15.427Z,100357.69
2018-12-21T23:34:47.454Z,100358.72
2018-12-21T23:37:16.751Z,100351.53
2018-12-21T23:39:47.099Z,100351.89
2018-12-21T23:45:19.319Z,100347.05
2018-12-21T23:47:49.904Z,100342.73
2018-12-21T23:50:20.840Z,100348.05
2018-12-21T23:53:01.784Z,100272.39
2018-12-21T23:55:36.798Z,100351.89
2018-12-21T23:58:13.833Z,100350.20
